sensor_id;sensor_type;location;lat;lon;timestamp;temperature;humidity
2477;DHT22;1249;51.270;6.756;2023-07-22T00:01:54;21.60;91.70
2477;DHT22;1249;51.270;6.756;2023-07-22T00:04:20;21.60;91.70
2477;DHT22;1249;51.270;6.756;2023-07-22T00:06:45;21.60;91.60
2477;DHT22;1249;51.270;6.756;2023-07-22T00:09:11;21.70;91.70
2477;DHT22;1249;51.270;6.756;2023-07-22T00:11:36;21.70;91.70
2477;DHT22;1249;51.270;6.756;2023-07-22T00:14:02;21.70;91.60
2477;DHT22;1249;51.270;6.756;2023-07-22T00:16:27;21.70;91.50
2477;DHT22;1249;51.270;6.756;2023-07-22T00:18:54;21.70;91.50
2477;DHT22;1249;51.270;6.756;2023-07-22T00:21:20;21.70;91.60
2477;DHT22;1249;51.270;6.756;2023-07-22T00:23:46;21.70;91.50
2477;DHT22;1249;51.270;6.756;2023-07-22T00:26:11;21.70;91.50
2477;DHT22;1249;51.270;6.756;2023-07-22T00:28:37;21.70;91.50
2477;DHT22;1249;51.270;6.756;2023-07-22T00:31:03;21.70;91.50
2477;DHT22;1249;51.270;6.756;2023-07-22T00:33:28;21.70;91.60
2477;DHT22;1249;51.270;6.756;2023-07-22T00:35:54;21.70;91.70
2477;DHT22;1249;51.270;6.756;2023-07-22T00:38:20;21.70;91.70
2477;DHT22;1249;51.270;6.756;2023-07-22T00:40:46;21.70;91.50
2477;DHT22;1249;51.270;6.756;2023-07-22T00:43:12;21.70;91.60
2477;DHT22;1249;51.270;6.756;2023-07-22T00:45:37;21.70;91.70
2477;DHT22;1249;51.270;6.756;2023-07-22T00:48:05;21.70;91.70
2477;DHT22;1249;51.270;6.756;2023-07-22T00:50:32;21.70;91.60
2477;DHT22;1249;51.270;6.756;2023-07-22T00:52:58;21.70;91.60
2477;DHT22;1249;51.270;6.756;2023-07-22T00:55:24;21.70;91.70
2477;DHT22;1249;51.270;6.756;2023-07-22T00:57:50;21.60;91.60
2477;DHT22;1249;51.270;6.756;2023-07-22T01:00:16;21.70;91.50
2477;DHT22;1249;51.270;6.756;2023-07-22T01:02:42;21.60;91.50
2477;DHT22;1249;51.270;6.756;2023-07-22T01:05:08;21.60;91.60
2477;DHT22;1249;51.270;6.756;2023-07-22T01:07:36;21.60;91.60
2477;DHT22;1249;51.270;6.756;2023-07-22T01:10:01;21.60;91.70
2477;DHT22;1249;51.270;6.756;2023-07-22T01:12:28;21.60;91.80
2477;DHT22;1249;51.270;6.756;2023-07-22T01:14:54;21.60;91.80
2477;DHT22;1249;51.270;6.756;2023-07-22T01:17:19;21.50;91.70
2477;DHT22;1249;51.270;6.756;2023-07-22T01:19:46;21.50;91.80
2477;DHT22;1249;51.270;6.756;2023-07-22T01:22:13;21.60;91.80
2477;DHT22;1249;51.270;6.756;2023-07-22T01:24:39;21.50;91.80
2477;DHT22;1249;51.270;6.756;2023-07-22T01:27:06;21.50;91.90
2477;DHT22;1249;51.270;6.756;2023-07-22T01:29:34;21.50;91.70
2477;DHT22;1249;51.270;6.756;2023-07-22T01:32:00;21.50;91.90
2477;DHT22;1249;51.270;6.756;2023-07-22T01:34:26;21.50;91.80
2477;DHT22;1249;51.270;6.756;2023-07-22T01:36:51;21.50;91.80
2477;DHT22;1249;51.270;6.756;2023-07-22T01:39:17;21.50;92.00
2477;DHT22;1249;51.270;6.756;2023-07-22T01:41:47;21.50;91.90
2477;DHT22;1249;51.270;6.756;2023-07-22T01:44:13;21.50;91.70
2477;DHT22;1249;51.270;6.756;2023-07-22T01:46:39;21.50;91.60
2477;DHT22;1249;51.270;6.756;2023-07-22T01:49:07;21.50;91.70
2477;DHT22;1249;51.270;6.756;2023-07-22T01:51:36;21.40;91.80
2477;DHT22;1249;51.270;6.756;2023-07-22T01:54:08;21.40;91.90
2477;DHT22;1249;51.270;6.756;2023-07-22T01:56:35;21.40;91.90
2477;DHT22;1249;51.270;6.756;2023-07-22T01:59:01;21.40;92.20
2477;DHT22;1249;51.270;6.756;2023-07-22T02:01:27;21.40;91.90
2477;DHT22;1249;51.270;6.756;2023-07-22T02:03:53;21.40;92.10
2477;DHT22;1249;51.270;6.756;2023-07-22T02:06:19;21.40;91.90
2477;DHT22;1249;51.270;6.756;2023-07-22T02:08:44;21.40;92.00
2477;DHT22;1249;51.270;6.756;2023-07-22T02:11:11;21.40;92.20
2477;DHT22;1249;51.270;6.756;2023-07-22T02:13:37;21.30;92.00
2477;DHT22;1249;51.270;6.756;2023-07-22T02:16:03;21.40;92.20
2477;DHT22;1249;51.270;6.756;2023-07-22T02:18:29;21.30;92.00
2477;DHT22;1249;51.270;6.756;2023-07-22T02:20:55;21.30;92.20
2477;DHT22;1249;51.270;6.756;2023-07-22T02:23:22;21.30;92.20
2477;DHT22;1249;51.270;6.756;2023-07-22T02:25:52;21.30;92.10
2477;DHT22;1249;51.270;6.756;2023-07-22T02:28:18;21.30;92.20
2477;DHT22;1249;51.270;6.756;2023-07-22T02:30:48;21.30;92.30
2477;DHT22;1249;51.270;6.756;2023-07-22T02:33:15;21.30;92.10
2477;DHT22;1249;51.270;6.756;2023-07-22T02:35:41;21.30;92.10
2477;DHT22;1249;51.270;6.756;2023-07-22T02:38:07;21.30;92.10
2477;DHT22;1249;51.270;6.756;2023-07-22T02:40:37;21.30;92.10
2477;DHT22;1249;51.270;6.756;2023-07-22T02:43:02;21.30;92.10
2477;DHT22;1249;51.270;6.756;2023-07-22T02:45:29;21.30;92.10
2477;DHT22;1249;51.270;6.756;2023-07-22T02:47:54;21.30;92.00
2477;DHT22;1249;51.270;6.756;2023-07-22T02:50:20;21.30;92.00
2477;DHT22;1249;51.270;6.756;2023-07-22T02:52:45;21.30;92.10
2477;DHT22;1249;51.270;6.756;2023-07-22T02:55:15;21.30;92.00
2477;DHT22;1249;51.270;6.756;2023-07-22T02:57:44;21.30;92.10
2477;DHT22;1249;51.270;6.756;2023-07-22T03:00:12;21.30;92.10
2477;DHT22;1249;51.270;6.756;2023-07-22T03:02:39;21.30;92.10
2477;DHT22;1249;51.270;6.756;2023-07-22T03:05:09;21.30;92.00
2477;DHT22;1249;51.270;6.756;2023-07-22T03:07:36;21.30;92.20
2477;DHT22;1249;51.270;6.756;2023-07-22T03:10:02;21.30;92.30
2477;DHT22;1249;51.270;6.756;2023-07-22T03:12:27;21.20;92.00
2477;DHT22;1249;51.270;6.756;2023-07-22T03:14:54;21.20;91.80
2477;DHT22;1249;51.270;6.756;2023-07-22T03:17:19;21.20;91.90
2477;DHT22;1249;51.270;6.756;2023-07-22T03:19:45;21.20;91.80
2477;DHT22;1249;51.270;6.756;2023-07-22T03:22:14;21.20;91.80
2477;DHT22;1249;51.270;6.756;2023-07-22T03:24:41;21.20;91.90
2477;DHT22;1249;51.270;6.756;2023-07-22T03:27:07;21.20;91.70
2477;DHT22;1249;51.270;6.756;2023-07-22T03:29:33;21.20;91.80
2477;DHT22;1249;51.270;6.756;2023-07-22T03:31:58;21.20;91.70
2477;DHT22;1249;51.270;6.756;2023-07-22T03:34:29;21.20;91.70
2477;DHT22;1249;51.270;6.756;2023-07-22T03:36:55;21.20;91.90
2477;DHT22;1249;51.270;6.756;2023-07-22T03:39:20;21.20;91.60
2477;DHT22;1249;51.270;6.756;2023-07-22T03:41:46;21.20;91.90
2477;DHT22;1249;51.270;6.756;2023-07-22T03:44:11;21.10;91.70
2477;DHT22;1249;51.270;6.756;2023-07-22T03:46:38;21.10;91.80
2477;DHT22;1249;51.270;6.756;2023-07-22T03:49:03;21.10;91.70
2477;DHT22;1249;51.270;6.756;2023-07-22T03:51:29;21.10;91.80
2477;DHT22;1249;51.270;6.756;2023-07-22T03:53:54;21.20;92.00
2477;DHT22;1249;51.270;6.756;2023-07-22T03:56:20;21.10;91.70
2477;DHT22;1249;51.270;6.756;2023-07-22T03:58:46;21.10;91.70
2477;DHT22;1249;51.270;6.756;2023-07-22T04:01:12;21.10;91.70
2477;DHT22;1249;51.270;6.756;2023-07-22T04:03:38;21.10;91.80
2477;DHT22;1249;51.270;6.756;2023-07-22T04:06:03;21.20;91.80
2477;DHT22;1249;51.270;6.756;2023-07-22T04:08:29;21.20;91.50
2477;DHT22;1249;51.270;6.756;2023-07-22T04:10:56;21.10;91.60
2477;DHT22;1249;51.270;6.756;2023-07-22T04:13:23;21.10;91.60
2477;DHT22;1249;51.270;6.756;2023-07-22T04:15:49;21.10;91.70
2477;DHT22;1249;51.270;6.756;2023-07-22T04:18:19;21.10;91.90
2477;DHT22;1249;51.270;6.756;2023-07-22T04:20:46;21.20;91.90
2477;DHT22;1249;51.270;6.756;2023-07-22T04:23:12;21.10;91.70
2477;DHT22;1249;51.270;6.756;2023-07-22T04:25:41;21.10;91.60
2477;DHT22;1249;51.270;6.756;2023-07-22T04:28:07;21.20;91.70
2477;DHT22;1249;51.270;6.756;2023-07-22T04:30:34;21.20;91.70
2477;DHT22;1249;51.270;6.756;2023-07-22T04:32:59;21.20;91.60
2477;DHT22;1249;51.270;6.756;2023-07-22T04:35:25;21.10;91.80
2477;DHT22;1249;51.270;6.756;2023-07-22T04:37:50;21.20;91.80
2477;DHT22;1249;51.270;6.756;2023-07-22T04:40:16;21.20;91.70
2477;DHT22;1249;51.270;6.756;2023-07-22T04:42:43;21.20;91.70
2477;DHT22;1249;51.270;6.756;2023-07-22T04:45:09;21.20;91.60
2477;DHT22;1249;51.270;6.756;2023-07-22T04:47:36;21.20;91.60
2477;DHT22;1249;51.270;6.756;2023-07-22T04:50:02;21.20;91.70
2477;DHT22;1249;51.270;6.756;2023-07-22T04:52:29;21.20;91.60
2477;DHT22;1249;51.270;6.756;2023-07-22T04:54:55;21.20;91.60
2477;DHT22;1249;51.270;6.756;2023-07-22T04:57:21;21.20;91.50
2477;DHT22;1249;51.270;6.756;2023-07-22T04:59:46;21.30;91.30
2477;DHT22;1249;51.270;6.756;2023-07-22T05:02:12;21.30;91.20
2477;DHT22;1249;51.270;6.756;2023-07-22T05:04:38;21.30;91.30
2477;DHT22;1249;51.270;6.756;2023-07-22T05:07:04;21.30;91.30
2477;DHT22;1249;51.270;6.756;2023-07-22T05:09:29;21.30;91.20
2477;DHT22;1249;51.270;6.756;2023-07-22T05:11:55;21.30;90.50
2477;DHT22;1249;51.270;6.756;2023-07-22T05:14:20;21.20;90.60
2477;DHT22;1249;51.270;6.756;2023-07-22T05:16:46;21.10;87.80
2477;DHT22;1249;51.270;6.756;2023-07-22T05:19:11;21.10;89.00
2477;DHT22;1249;51.270;6.756;2023-07-22T05:21:37;21.10;89.60
2477;DHT22;1249;51.270;6.756;2023-07-22T05:24:03;21.10;88.30
2477;DHT22;1249;51.270;6.756;2023-07-22T05:26:28;21.10;87.40
2477;DHT22;1249;51.270;6.756;2023-07-22T05:28:54;21.10;88.40
2477;DHT22;1249;51.270;6.756;2023-07-22T05:31:19;21.10;88.10
2477;DHT22;1249;51.270;6.756;2023-07-22T05:33:45;21.10;87.40
2477;DHT22;1249;51.270;6.756;2023-07-22T05:36:10;21.10;87.30
2477;DHT22;1249;51.270;6.756;2023-07-22T05:38:36;21.10;82.90
2477;DHT22;1249;51.270;6.756;2023-07-22T05:41:01;20.80;77.00
2477;DHT22;1249;51.270;6.756;2023-07-22T05:43:27;20.80;77.40
2477;DHT22;1249;51.270;6.756;2023-07-22T05:45:53;21.00;79.50
2477;DHT22;1249;51.270;6.756;2023-07-22T05:48:18;21.20;79.20
2477;DHT22;1249;51.270;6.756;2023-07-22T05:50:44;21.30;79.20
2477;DHT22;1249;51.270;6.756;2023-07-22T05:53:09;21.40;79.10
2477;DHT22;1249;51.270;6.756;2023-07-22T05:55:35;21.50;78.80
2477;DHT22;1249;51.270;6.756;2023-07-22T05:58:02;21.50;78.80
2477;DHT22;1249;51.270;6.756;2023-07-22T06:00:34;21.70;79.20
2477;DHT22;1249;51.270;6.756;2023-07-22T06:02:59;21.70;79.10
2477;DHT22;1249;51.270;6.756;2023-07-22T06:05:25;21.70;79.90
2477;DHT22;1249;51.270;6.756;2023-07-22T06:07:51;21.80;81.40
2477;DHT22;1249;51.270;6.756;2023-07-22T06:10:16;21.90;81.20
2477;DHT22;1249;51.270;6.756;2023-07-22T06:12:42;22.00;80.50
2477;DHT22;1249;51.270;6.756;2023-07-22T06:15:08;22.20;80.40
2477;DHT22;1249;51.270;6.756;2023-07-22T06:17:33;22.20;80.60
2477;DHT22;1249;51.270;6.756;2023-07-22T06:19:59;22.30;80.60
2477;DHT22;1249;51.270;6.756;2023-07-22T06:22:25;22.30;79.90
2477;DHT22;1249;51.270;6.756;2023-07-22T06:24:51;22.30;80.50
2477;DHT22;1249;51.270;6.756;2023-07-22T06:27:16;22.30;79.70
2477;DHT22;1249;51.270;6.756;2023-07-22T06:29:42;22.30;80.10
2477;DHT22;1249;51.270;6.756;2023-07-22T06:32:07;22.30;80.30
2477;DHT22;1249;51.270;6.756;2023-07-22T06:34:33;22.30;80.60
2477;DHT22;1249;51.270;6.756;2023-07-22T06:36:58;22.40;80.20
2477;DHT22;1249;51.270;6.756;2023-07-22T06:39:24;22.50;79.40
2477;DHT22;1249;51.270;6.756;2023-07-22T06:41:49;22.50;79.60
2477;DHT22;1249;51.270;6.756;2023-07-22T06:44:15;22.60;79.40
2477;DHT22;1249;51.270;6.756;2023-07-22T06:46:41;22.60;79.40
2477;DHT22;1249;51.270;6.756;2023-07-22T06:49:06;22.60;79.00
2477;DHT22;1249;51.270;6.756;2023-07-22T06:51:32;22.80;77.70
2477;DHT22;1249;51.270;6.756;2023-07-22T06:53:58;23.00;77.20
2477;DHT22;1249;51.270;6.756;2023-07-22T06:56:23;23.50;75.70
2477;DHT22;1249;51.270;6.756;2023-07-22T06:58:49;23.90;73.70
2477;DHT22;1249;51.270;6.756;2023-07-22T07:01:16;24.00;71.60
2477;DHT22;1249;51.270;6.756;2023-07-22T07:03:42;24.10;69.40
2477;DHT22;1249;51.270;6.756;2023-07-22T07:06:07;24.10;69.60
2477;DHT22;1249;51.270;6.756;2023-07-22T07:08:33;24.20;69.40
2477;DHT22;1249;51.270;6.756;2023-07-22T07:10:59;24.30;69.20
2477;DHT22;1249;51.270;6.756;2023-07-22T07:13:26;24.30;68.80
2477;DHT22;1249;51.270;6.756;2023-07-22T07:15:52;24.10;68.10
2477;DHT22;1249;51.270;6.756;2023-07-22T07:18:17;23.90;69.00
2477;DHT22;1249;51.270;6.756;2023-07-22T07:20:43;23.90;69.30
2477;DHT22;1249;51.270;6.756;2023-07-22T07:23:09;24.10;68.80
2477;DHT22;1249;51.270;6.756;2023-07-22T07:25:35;24.30;68.20
2477;DHT22;1249;51.270;6.756;2023-07-22T07:28:00;24.50;67.90
2477;DHT22;1249;51.270;6.756;2023-07-22T07:30:26;24.60;66.70
2477;DHT22;1249;51.270;6.756;2023-07-22T07:32:51;24.40;65.90
2477;DHT22;1249;51.270;6.756;2023-07-22T07:35:17;24.20;66.30
2477;DHT22;1249;51.270;6.756;2023-07-22T07:37:42;24.00;67.00
2477;DHT22;1249;51.270;6.756;2023-07-22T07:40:08;23.80;67.00
2477;DHT22;1249;51.270;6.756;2023-07-22T07:42:34;23.80;67.50
2477;DHT22;1249;51.270;6.756;2023-07-22T07:44:59;23.70;67.60
2477;DHT22;1249;51.270;6.756;2023-07-22T07:47:25;23.70;68.10
2477;DHT22;1249;51.270;6.756;2023-07-22T07:49:50;23.70;68.40
2477;DHT22;1249;51.270;6.756;2023-07-22T07:52:16;23.70;68.30
2477;DHT22;1249;51.270;6.756;2023-07-22T07:54:42;23.80;68.30
2477;DHT22;1249;51.270;6.756;2023-07-22T07:57:07;23.80;68.30
2477;DHT22;1249;51.270;6.756;2023-07-22T07:59:33;23.80;68.10
2477;DHT22;1249;51.270;6.756;2023-07-22T08:01:58;23.80;68.30
2477;DHT22;1249;51.270;6.756;2023-07-22T08:04:24;23.80;68.00
2477;DHT22;1249;51.270;6.756;2023-07-22T08:06:49;23.90;67.70
2477;DHT22;1249;51.270;6.756;2023-07-22T08:09:15;24.20;68.20
2477;DHT22;1249;51.270;6.756;2023-07-22T08:11:45;24.60;67.50
2477;DHT22;1249;51.270;6.756;2023-07-22T08:14:11;25.00;66.80
2477;DHT22;1249;51.270;6.756;2023-07-22T08:16:37;25.30;64.70
2477;DHT22;1249;51.270;6.756;2023-07-22T08:19:03;25.50;64.20
2477;DHT22;1249;51.270;6.756;2023-07-22T08:21:29;25.70;63.80
2477;DHT22;1249;51.270;6.756;2023-07-22T08:23:55;26.10;63.10
2477;DHT22;1249;51.270;6.756;2023-07-22T08:26:20;26.40;62.70
2477;DHT22;1249;51.270;6.756;2023-07-22T08:28:47;26.80;60.90
2477;DHT22;1249;51.270;6.756;2023-07-22T08:31:13;27.10;59.90
2477;DHT22;1249;51.270;6.756;2023-07-22T08:33:38;27.40;59.00
2477;DHT22;1249;51.270;6.756;2023-07-22T08:36:04;27.60;58.50
2477;DHT22;1249;51.270;6.756;2023-07-22T08:38:30;27.80;58.10
2477;DHT22;1249;51.270;6.756;2023-07-22T08:40:56;27.90;57.00
2477;DHT22;1249;51.270;6.756;2023-07-22T08:43:22;27.80;56.70
2477;DHT22;1249;51.270;6.756;2023-07-22T08:45:50;27.60;56.10
2477;DHT22;1249;51.270;6.756;2023-07-22T08:48:18;27.50;56.30
2477;DHT22;1249;51.270;6.756;2023-07-22T08:50:53;27.60;56.70
2477;DHT22;1249;51.270;6.756;2023-07-22T08:53:19;27.50;57.00
2477;DHT22;1249;51.270;6.756;2023-07-22T08:55:49;27.60;57.40
2477;DHT22;1249;51.270;6.756;2023-07-22T08:58:15;27.80;57.00
2477;DHT22;1249;51.270;6.756;2023-07-22T09:00:42;27.70;56.60
2477;DHT22;1249;51.270;6.756;2023-07-22T09:03:09;27.70;56.60
2477;DHT22;1249;51.270;6.756;2023-07-22T09:05:36;27.60;56.20
2477;DHT22;1249;51.270;6.756;2023-07-22T09:08:03;27.70;56.00
2477;DHT22;1249;51.270;6.756;2023-07-22T09:10:29;27.90;55.80
2477;DHT22;1249;51.270;6.756;2023-07-22T09:12:55;28.00;55.40
2477;DHT22;1249;51.270;6.756;2023-07-22T09:15:21;28.30;55.90
2477;DHT22;1249;51.270;6.756;2023-07-22T09:17:48;28.70;54.70
2477;DHT22;1249;51.270;6.756;2023-07-22T09:20:14;28.90;53.90
2477;DHT22;1249;51.270;6.756;2023-07-22T09:22:44;29.10;53.90
2477;DHT22;1249;51.270;6.756;2023-07-22T09:25:18;29.30;54.40
2477;DHT22;1249;51.270;6.756;2023-07-22T09:27:45;29.70;54.20
2477;DHT22;1249;51.270;6.756;2023-07-22T09:30:27;29.90;52.90
2477;DHT22;1249;51.270;6.756;2023-07-22T09:32:58;30.00;52.60
2477;DHT22;1249;51.270;6.756;2023-07-22T09:35:43;30.10;51.70
2477;DHT22;1249;51.270;6.756;2023-07-22T09:38:09;30.00;51.70
2477;DHT22;1249;51.270;6.756;2023-07-22T09:40:35;29.90;52.10
2477;DHT22;1249;51.270;6.756;2023-07-22T09:43:03;29.90;51.70
2477;DHT22;1249;51.270;6.756;2023-07-22T09:45:30;29.70;50.90
2477;DHT22;1249;51.270;6.756;2023-07-22T09:47:58;29.50;51.50
2477;DHT22;1249;51.270;6.756;2023-07-22T09:50:25;29.30;51.80
2477;DHT22;1249;51.270;6.756;2023-07-22T09:52:56;29.20;52.10
2477;DHT22;1249;51.270;6.756;2023-07-22T09:55:26;29.30;52.50
2477;DHT22;1249;51.270;6.756;2023-07-22T09:58:00;29.70;53.50
2477;DHT22;1249;51.270;6.756;2023-07-22T10:00:32;30.00;52.60
2477;DHT22;1249;51.270;6.756;2023-07-22T10:02:59;30.10;52.40
2477;DHT22;1249;51.270;6.756;2023-07-22T10:05:26;30.50;51.80
2477;DHT22;1249;51.270;6.756;2023-07-22T10:07:56;30.90;51.70
2477;DHT22;1249;51.270;6.756;2023-07-22T10:10:30;31.30;50.50
2477;DHT22;1249;51.270;6.756;2023-07-22T10:12:56;31.80;50.40
2477;DHT22;1249;51.270;6.756;2023-07-22T10:15:25;32.30;49.00
2477;DHT22;1249;51.270;6.756;2023-07-22T10:17:51;32.70;47.30
2477;DHT22;1249;51.270;6.756;2023-07-22T10:20:16;33.20;47.70
2477;DHT22;1249;51.270;6.756;2023-07-22T10:22:46;33.70;47.50
2477;DHT22;1249;51.270;6.756;2023-07-22T10:25:16;34.20;46.40
2477;DHT22;1249;51.270;6.756;2023-07-22T10:27:43;34.30;44.70
2477;DHT22;1249;51.270;6.756;2023-07-22T10:30:11;34.50;45.20
2477;DHT22;1249;51.270;6.756;2023-07-22T10:32:42;34.80;45.00
2477;DHT22;1249;51.270;6.756;2023-07-22T10:35:11;35.10;44.50
2477;DHT22;1249;51.270;6.756;2023-07-22T10:37:39;35.20;43.90
2477;DHT22;1249;51.270;6.756;2023-07-22T10:42:58;35.30;43.60
2477;DHT22;1249;51.270;6.756;2023-07-22T10:45:29;35.40;43.50
2477;DHT22;1249;51.270;6.756;2023-07-22T10:48:09;35.80;43.30
2477;DHT22;1249;51.270;6.756;2023-07-22T10:50:57;36.20;42.30
2477;DHT22;1249;51.270;6.756;2023-07-22T11:11:55;37.00;40.50
2477;DHT22;1249;51.270;6.756;2023-07-22T11:14:33;36.80;40.20
2477;DHT22;1249;51.270;6.756;2023-07-22T11:17:01;36.50;39.80
2477;DHT22;1249;51.270;6.756;2023-07-22T11:19:29;36.10;39.70
2477;DHT22;1249;51.270;6.756;2023-07-22T11:21:55;36.20;40.50
2477;DHT22;1249;51.270;6.756;2023-07-22T11:24:23;36.20;40.80
2477;DHT22;1249;51.270;6.756;2023-07-22T11:26:49;36.20;40.80
2477;DHT22;1249;51.270;6.756;2023-07-22T11:29:16;36.10;40.70
2477;DHT22;1249;51.270;6.756;2023-07-22T11:31:43;36.00;40.70
2477;DHT22;1249;51.270;6.756;2023-07-22T11:34:11;35.90;41.10
2477;DHT22;1249;51.270;6.756;2023-07-22T11:36:37;35.90;41.50
2477;DHT22;1249;51.270;6.756;2023-07-22T11:39:07;36.10;41.50
2477;DHT22;1249;51.270;6.756;2023-07-22T11:41:34;36.70;41.40
2477;DHT22;1249;51.270;6.756;2023-07-22T11:44:00;37.30;40.40
2477;DHT22;1249;51.270;6.756;2023-07-22T11:46:27;37.80;39.80
2477;DHT22;1249;51.270;6.756;2023-07-22T11:48:53;37.90;40.00
2477;DHT22;1249;51.270;6.756;2023-07-22T11:51:24;38.30;39.70
2477;DHT22;1249;51.270;6.756;2023-07-22T11:53:52;38.70;38.70
2477;DHT22;1249;51.270;6.756;2023-07-22T11:58:49;39.40;37.70
2477;DHT22;1249;51.270;6.756;2023-07-22T12:01:14;39.40;36.10
2477;DHT22;1249;51.270;6.756;2023-07-22T12:03:41;39.50;36.20
2477;DHT22;1249;51.270;6.756;2023-07-22T12:06:07;39.20;36.20
2477;DHT22;1249;51.270;6.756;2023-07-22T12:08:33;38.30;36.90
2477;DHT22;1249;51.270;6.756;2023-07-22T12:10:59;38.30;38.60
2477;DHT22;1249;51.270;6.756;2023-07-22T12:13:25;38.70;38.60
2477;DHT22;1249;51.270;6.756;2023-07-22T12:16:01;39.10;38.50
2477;DHT22;1249;51.270;6.756;2023-07-22T12:18:27;39.30;37.50
2477;DHT22;1249;51.270;6.756;2023-07-22T12:20:53;39.60;36.70
2477;DHT22;1249;51.270;6.756;2023-07-22T12:23:18;39.90;37.10
2477;DHT22;1249;51.270;6.756;2023-07-22T12:25:44;39.90;37.30
2477;DHT22;1249;51.270;6.756;2023-07-22T12:28:09;40.20;36.30
2477;DHT22;1249;51.270;6.756;2023-07-22T12:30:36;40.10;36.00
2477;DHT22;1249;51.270;6.756;2023-07-22T12:33:02;40.50;36.50
2477;DHT22;1249;51.270;6.756;2023-07-22T12:35:28;40.70;36.40
2477;DHT22;1249;51.270;6.756;2023-07-22T12:37:53;40.40;36.40
2477;DHT22;1249;51.270;6.756;2023-07-22T12:40:19;40.20;36.70
2477;DHT22;1249;51.270;6.756;2023-07-22T12:42:46;40.60;36.80
2477;DHT22;1249;51.270;6.756;2023-07-22T12:45:12;40.60;35.80
2477;DHT22;1249;51.270;6.756;2023-07-22T12:47:38;40.00;36.40
2477;DHT22;1249;51.270;6.756;2023-07-22T12:50:04;39.60;36.00
2477;DHT22;1249;51.270;6.756;2023-07-22T12:52:30;39.30;36.60
2477;DHT22;1249;51.270;6.756;2023-07-22T12:54:55;39.00;37.70
2477;DHT22;1249;51.270;6.756;2023-07-22T12:57:21;39.10;37.10
2477;DHT22;1249;51.270;6.756;2023-07-22T12:59:47;38.70;36.90
2477;DHT22;1249;51.270;6.756;2023-07-22T13:02:12;38.70;37.50
2477;DHT22;1249;51.270;6.756;2023-07-22T13:04:38;38.90;36.50
2477;DHT22;1249;51.270;6.756;2023-07-22T13:07:03;39.00;36.90
2477;DHT22;1249;51.270;6.756;2023-07-22T13:09:29;39.20;35.40
2477;DHT22;1249;51.270;6.756;2023-07-22T13:11:54;39.10;36.00
2477;DHT22;1249;51.270;6.756;2023-07-22T13:14:20;39.30;36.20
2477;DHT22;1249;51.270;6.756;2023-07-22T13:16:46;39.30;36.40
2477;DHT22;1249;51.270;6.756;2023-07-22T13:19:11;39.90;36.20
2477;DHT22;1249;51.270;6.756;2023-07-22T13:21:37;39.90;34.40
2477;DHT22;1249;51.270;6.756;2023-07-22T13:24:02;40.10;34.60
2477;DHT22;1249;51.270;6.756;2023-07-22T13:26:28;40.50;34.60
2477;DHT22;1249;51.270;6.756;2023-07-22T13:28:54;40.60;33.90
2477;DHT22;1249;51.270;6.756;2023-07-22T13:31:19;40.40;34.10
2477;DHT22;1249;51.270;6.756;2023-07-22T13:33:45;40.20;34.50
2477;DHT22;1249;51.270;6.756;2023-07-22T13:36:10;39.90;33.90
2477;DHT22;1249;51.270;6.756;2023-07-22T13:38:36;39.30;32.70
2477;DHT22;1249;51.270;6.756;2023-07-22T13:41:01;38.80;32.80
2477;DHT22;1249;51.270;6.756;2023-07-22T13:43:27;38.30;33.20
2477;DHT22;1249;51.270;6.756;2023-07-22T13:45:53;37.80;33.70
2477;DHT22;1249;51.270;6.756;2023-07-22T13:48:19;37.50;34.10
2477;DHT22;1249;51.270;6.756;2023-07-22T13:50:44;37.00;34.10
2477;DHT22;1249;51.270;6.756;2023-07-22T13:53:10;36.60;34.40
2477;DHT22;1249;51.270;6.756;2023-07-22T13:55:35;36.30;35.00
2477;DHT22;1249;51.270;6.756;2023-07-22T13:58:01;36.20;35.00
2477;DHT22;1249;51.270;6.756;2023-07-22T14:00:27;36.30;35.90
2477;DHT22;1249;51.270;6.756;2023-07-22T14:02:53;36.60;35.80
2477;DHT22;1249;51.270;6.756;2023-07-22T14:05:18;36.50;35.50
2477;DHT22;1249;51.270;6.756;2023-07-22T14:07:44;36.60;35.40
2477;DHT22;1249;51.270;6.756;2023-07-22T14:10:09;37.10;36.60
2477;DHT22;1249;51.270;6.756;2023-07-22T14:12:35;37.50;35.30
2477;DHT22;1249;51.270;6.756;2023-07-22T14:15:01;37.60;34.50
2477;DHT22;1249;51.270;6.756;2023-07-22T14:17:29;37.40;33.80
2477;DHT22;1249;51.270;6.756;2023-07-22T14:19:57;37.20;35.30
2477;DHT22;1249;51.270;6.756;2023-07-22T14:22:23;37.50;34.80
2477;DHT22;1249;51.270;6.756;2023-07-22T14:24:49;36.90;34.40
2477;DHT22;1249;51.270;6.756;2023-07-22T14:27:14;36.70;35.90
2477;DHT22;1249;51.270;6.756;2023-07-22T14:29:40;37.20;36.60
2477;DHT22;1249;51.270;6.756;2023-07-22T14:32:05;37.80;36.20
2477;DHT22;1249;51.270;6.756;2023-07-22T14:34:31;38.20;35.80
2477;DHT22;1249;51.270;6.756;2023-07-22T14:36:57;38.10;34.80
2477;DHT22;1249;51.270;6.756;2023-07-22T14:39:22;37.60;35.50
2477;DHT22;1249;51.270;6.756;2023-07-22T14:41:48;37.60;36.90
2477;DHT22;1249;51.270;6.756;2023-07-22T14:44:14;37.80;36.90
2477;DHT22;1249;51.270;6.756;2023-07-22T14:46:39;37.90;36.00
2477;DHT22;1249;51.270;6.756;2023-07-22T14:49:05;38.20;36.70
2477;DHT22;1249;51.270;6.756;2023-07-22T14:51:35;38.10;36.20
2477;DHT22;1249;51.270;6.756;2023-07-22T14:54:00;38.00;35.80
2477;DHT22;1249;51.270;6.756;2023-07-22T14:56:26;38.20;36.60
2477;DHT22;1249;51.270;6.756;2023-07-22T14:58:51;38.20;35.30
2477;DHT22;1249;51.270;6.756;2023-07-22T15:01:17;37.60;35.70
2477;DHT22;1249;51.270;6.756;2023-07-22T15:03:42;36.80;36.90
2477;DHT22;1249;51.270;6.756;2023-07-22T15:06:08;36.00;37.70
2477;DHT22;1249;51.270;6.756;2023-07-22T15:08:33;36.20;38.50
2477;DHT22;1249;51.270;6.756;2023-07-22T15:10:59;36.20;38.00
2477;DHT22;1249;51.270;6.756;2023-07-22T15:13:25;36.00;37.60
2477;DHT22;1249;51.270;6.756;2023-07-22T15:15:53;35.80;37.70
2477;DHT22;1249;51.270;6.756;2023-07-22T15:18:19;35.50;38.00
2477;DHT22;1249;51.270;6.756;2023-07-22T15:20:44;35.40;38.80
2477;DHT22;1249;51.270;6.756;2023-07-22T15:23:10;35.20;38.60
2477;DHT22;1249;51.270;6.756;2023-07-22T15:25:36;35.20;39.60
2477;DHT22;1249;51.270;6.756;2023-07-22T15:28:01;35.20;39.60
2477;DHT22;1249;51.270;6.756;2023-07-22T15:30:27;34.90;38.70
2477;DHT22;1249;51.270;6.756;2023-07-22T15:32:52;34.50;39.70
2477;DHT22;1249;51.270;6.756;2023-07-22T15:35:18;34.00;40.90
2477;DHT22;1249;51.270;6.756;2023-07-22T15:37:43;33.50;41.50
2477;DHT22;1249;51.270;6.756;2023-07-22T15:40:10;33.10;42.10
2477;DHT22;1249;51.270;6.756;2023-07-22T15:42:35;32.70;42.40
2477;DHT22;1249;51.270;6.756;2023-07-22T15:45:01;32.60;42.90
2477;DHT22;1249;51.270;6.756;2023-07-22T15:47:27;32.50;42.70
2477;DHT22;1249;51.270;6.756;2023-07-22T15:49:52;32.30;43.00
2477;DHT22;1249;51.270;6.756;2023-07-22T15:52:18;32.00;43.90
2477;DHT22;1249;51.270;6.756;2023-07-22T15:54:44;31.80;44.10
2477;DHT22;1249;51.270;6.756;2023-07-22T15:57:09;31.60;45.10
2477;DHT22;1249;51.270;6.756;2023-07-22T15:59:35;31.50;45.10
2477;DHT22;1249;51.270;6.756;2023-07-22T16:02:01;31.40;45.70
2477;DHT22;1249;51.270;6.756;2023-07-22T16:04:27;31.30;46.00
2477;DHT22;1249;51.270;6.756;2023-07-22T16:06:53;31.10;47.10
2477;DHT22;1249;51.270;6.756;2023-07-22T16:09:18;31.10;47.70
2477;DHT22;1249;51.270;6.756;2023-07-22T16:11:44;31.10;47.80
2477;DHT22;1249;51.270;6.756;2023-07-22T16:14:10;31.40;47.60
2477;DHT22;1249;51.270;6.756;2023-07-22T16:16:36;31.60;46.80
2477;DHT22;1249;51.270;6.756;2023-07-22T16:19:02;31.60;45.80
2477;DHT22;1249;51.270;6.756;2023-07-22T16:21:28;31.60;45.90